sensor_id;sensor_type;location;lat;lon;timestamp;P1;durP1;ratioP1;P2;durP2;ratioP2
6878;SDS011;3478;51.462;7.338;2022-10-16T00:00:19;3.43;;;3.23;;
6878;SDS011;3478;51.462;7.338;2022-10-16T00:05:21;4.23;;;1.63;;
6878;SDS011;3478;51.462;7.338;2022-10-16T00:10:24;2.50;;;1.57;;
6878;SDS011;3478;51.462;7.338;2022-10-16T00:15:26;7.53;;;3.33;;
6878;SDS011;3478;51.462;7.338;2022-10-16T00:20:28;4.07;;;2.30;;
6878;SDS011;3478;51.462;7.338;2022-10-16T00:25:32;2.57;;;1.93;;
6878;SDS011;3478;51.462;7.338;2022-10-16T00:30:37;3.10;;;2.77;;
6878;SDS011;3478;51.462;7.338;2022-10-16T00:35:39;3.80;;;2.50;;
6878;SDS011;3478;51.462;7.338;2022-10-16T00:40:42;2.73;;;1.60;;
6878;SDS011;3478;51.462;7.338;2022-10-16T00:45:44;1.80;;;1.70;;
6878;SDS011;3478;51.462;7.338;2022-10-16T00:50:46;2.77;;;2.57;;
6878;SDS011;3478;51.462;7.338;2022-10-16T00:55:49;2.50;;;2.07;;
6878;SDS011;3478;51.462;7.338;2022-10-16T01:00:51;4.13;;;1.13;;
6878;SDS011;3478;51.462;7.338;2022-10-16T01:06:00;3.30;;;1.03;;
6878;SDS011;3478;51.462;7.338;2022-10-16T01:11:17;1.67;;;0.93;;
6878;SDS011;3478;51.462;7.338;2022-10-16T01:16:28;3.03;;;1.40;;
6878;SDS011;3478;51.462;7.338;2022-10-16T01:21:36;1.53;;;1.43;;
6878;SDS011;3478;51.462;7.338;2022-10-16T01:32:15;3.23;;;0.93;;
6878;SDS011;3478;51.462;7.338;2022-10-16T01:37:24;3.60;;;1.30;;
6878;SDS011;3478;51.462;7.338;2022-10-16T01:42:35;1.30;;;1.20;;
6878;SDS011;3478;51.462;7.338;2022-10-16T01:47:40;1.40;;;1.30;;
6878;SDS011;3478;51.462;7.338;2022-10-16T01:52:44;2.23;;;0.90;;
6878;SDS011;3478;51.462;7.338;2022-10-16T01:57:50;1.40;;;1.07;;
6878;SDS011;3478;51.462;7.338;2022-10-16T02:02:54;1.60;;;1.50;;
6878;SDS011;3478;51.462;7.338;2022-10-16T02:07:58;3.20;;;2.93;;
6878;SDS011;3478;51.462;7.338;2022-10-16T02:13:02;1.97;;;1.10;;
6878;SDS011;3478;51.462;7.338;2022-10-16T02:18:07;2.40;;;1.30;;
6878;SDS011;3478;51.462;7.338;2022-10-16T02:23:12;4.50;;;1.40;;
6878;SDS011;3478;51.462;7.338;2022-10-16T02:28:23;1.30;;;1.20;;
6878;SDS011;3478;51.462;7.338;2022-10-16T02:33:30;2.80;;;1.40;;
6878;SDS011;3478;51.462;7.338;2022-10-16T02:38:33;1.40;;;1.30;;
6878;SDS011;3478;51.462;7.338;2022-10-16T02:43:38;2.83;;;1.70;;
6878;SDS011;3478;51.462;7.338;2022-10-16T02:48:40;22.90;;;2.53;;
6878;SDS011;3478;51.462;7.338;2022-10-16T02:53:41;4.50;;;2.10;;
6878;SDS011;3478;51.462;7.338;2022-10-16T02:58:45;1.20;;;0.97;;
6878;SDS011;3478;51.462;7.338;2022-10-16T03:03:47;4.67;;;1.10;;
6878;SDS011;3478;51.462;7.338;2022-10-16T03:08:48;2.33;;;1.10;;
6878;SDS011;3478;51.462;7.338;2022-10-16T03:13:52;1.63;;;1.10;;
6878;SDS011;3478;51.462;7.338;2022-10-16T03:18:53;3.43;;;1.30;;
6878;SDS011;3478;51.462;7.338;2022-10-16T03:23:55;2.20;;;1.30;;
6878;SDS011;3478;51.462;7.338;2022-10-16T03:28:58;2.10;;;1.10;;
6878;SDS011;3478;51.462;7.338;2022-10-16T03:34:02;2.23;;;0.73;;
6878;SDS011;3478;51.462;7.338;2022-10-16T03:39:04;1.83;;;0.60;;
6878;SDS011;3478;51.462;7.338;2022-10-16T03:44:07;6.53;;;0.80;;
6878;SDS011;3478;51.462;7.338;2022-10-16T03:49:09;0.93;;;0.60;;
6878;SDS011;3478;51.462;7.338;2022-10-16T03:54:11;1.83;;;0.63;;
6878;SDS011;3478;51.462;7.338;2022-10-16T03:59:15;0.80;;;0.57;;
6878;SDS011;3478;51.462;7.338;2022-10-16T04:04:17;2.30;;;0.70;;
6878;SDS011;3478;51.462;7.338;2022-10-16T04:09:19;1.30;;;0.50;;
6878;SDS011;3478;51.462;7.338;2022-10-16T04:14:22;1.00;;;0.50;;
6878;SDS011;3478;51.462;7.338;2022-10-16T04:19:24;0.70;;;0.50;;
6878;SDS011;3478;51.462;7.338;2022-10-16T04:24:26;4.00;;;0.60;;
6878;SDS011;3478;51.462;7.338;2022-10-16T04:29:29;0.90;;;0.50;;
6878;SDS011;3478;51.462;7.338;2022-10-16T04:34:31;1.33;;;0.93;;
6878;SDS011;3478;51.462;7.338;2022-10-16T04:39:33;4.23;;;0.80;;
6878;SDS011;3478;51.462;7.338;2022-10-16T04:44:36;4.37;;;0.60;;
6878;SDS011;3478;51.462;7.338;2022-10-16T04:49:38;1.10;;;0.60;;
6878;SDS011;3478;51.462;7.338;2022-10-16T04:54:40;1.00;;;0.80;;
6878;SDS011;3478;51.462;7.338;2022-10-16T04:59:43;1.80;;;0.63;;
6878;SDS011;3478;51.462;7.338;2022-10-16T05:04:45;2.10;;;0.70;;
6878;SDS011;3478;51.462;7.338;2022-10-16T05:09:47;0.90;;;0.60;;
6878;SDS011;3478;51.462;7.338;2022-10-16T05:14:50;0.60;;;0.50;;
6878;SDS011;3478;51.462;7.338;2022-10-16T05:19:52;0.87;;;0.50;;
6878;SDS011;3478;51.462;7.338;2022-10-16T05:24:54;1.50;;;0.80;;
6878;SDS011;3478;51.462;7.338;2022-10-16T05:29:57;2.13;;;0.80;;
6878;SDS011;3478;51.462;7.338;2022-10-16T05:34:59;0.90;;;0.60;;
6878;SDS011;3478;51.462;7.338;2022-10-16T05:40:01;0.70;;;0.50;;
6878;SDS011;3478;51.462;7.338;2022-10-16T05:45:07;1.63;;;0.70;;
6878;SDS011;3478;51.462;7.338;2022-10-16T05:50:11;0.90;;;0.50;;
6878;SDS011;3478;51.462;7.338;2022-10-16T05:55:13;0.80;;;0.50;;
6878;SDS011;3478;51.462;7.338;2022-10-16T06:00:17;2.83;;;0.57;;
6878;SDS011;3478;51.462;7.338;2022-10-16T06:05:19;0.90;;;0.70;;
6878;SDS011;3478;51.462;7.338;2022-10-16T06:10:20;1.47;;;0.50;;
6878;SDS011;3478;51.462;7.338;2022-10-16T06:15:24;3.87;;;1.00;;
6878;SDS011;3478;51.462;7.338;2022-10-16T06:20:26;1.40;;;0.60;;
6878;SDS011;3478;51.462;7.338;2022-10-16T06:25:28;1.00;;;0.60;;
6878;SDS011;3478;51.462;7.338;2022-10-16T06:30:31;5.03;;;0.63;;
6878;SDS011;3478;51.462;7.338;2022-10-16T06:35:33;2.53;;;1.20;;
6878;SDS011;3478;51.462;7.338;2022-10-16T06:40:35;1.40;;;0.80;;
6878;SDS011;3478;51.462;7.338;2022-10-16T06:45:38;2.23;;;0.80;;
6878;SDS011;3478;51.462;7.338;2022-10-16T06:50:40;5.13;;;0.70;;
6878;SDS011;3478;51.462;7.338;2022-10-16T06:55:41;0.70;;;0.70;;
6878;SDS011;3478;51.462;7.338;2022-10-16T07:00:45;1.10;;;0.80;;
6878;SDS011;3478;51.462;7.338;2022-10-16T07:05:47;1.00;;;0.90;;
6878;SDS011;3478;51.462;7.338;2022-10-16T07:10:57;1.77;;;0.63;;
6878;SDS011;3478;51.462;7.338;2022-10-16T07:16:05;3.03;;;1.20;;
6878;SDS011;3478;51.462;7.338;2022-10-16T07:21:08;0.90;;;0.70;;
6878;SDS011;3478;51.462;7.338;2022-10-16T07:26:12;1.37;;;0.50;;
6878;SDS011;3478;51.462;7.338;2022-10-16T07:31:16;6.20;;;0.90;;
6878;SDS011;3478;51.462;7.338;2022-10-16T07:36:20;1.97;;;0.90;;
6878;SDS011;3478;51.462;7.338;2022-10-16T07:41:22;3.70;;;0.90;;
6878;SDS011;3478;51.462;7.338;2022-10-16T07:46:26;3.63;;;0.73;;
6878;SDS011;3478;51.462;7.338;2022-10-16T07:51:28;2.00;;;0.80;;
6878;SDS011;3478;51.462;7.338;2022-10-16T07:56:30;1.30;;;1.03;;
6878;SDS011;3478;51.462;7.338;2022-10-16T08:01:34;7.50;;;1.10;;
6878;SDS011;3478;51.462;7.338;2022-10-16T08:06:36;1.00;;;0.90;;
6878;SDS011;3478;51.462;7.338;2022-10-16T08:11:39;1.00;;;0.80;;
6878;SDS011;3478;51.462;7.338;2022-10-16T08:16:42;2.07;;;0.70;;
6878;SDS011;3478;51.462;7.338;2022-10-16T08:21:46;1.63;;;0.90;;
6878;SDS011;3478;51.462;7.338;2022-10-16T08:26:48;1.37;;;0.90;;
6878;SDS011;3478;51.462;7.338;2022-10-16T08:31:52;1.03;;;0.87;;
6878;SDS011;3478;51.462;7.338;2022-10-16T08:36:54;1.50;;;1.40;;
6878;SDS011;3478;51.462;7.338;2022-10-16T08:47:24;1.10;;;0.70;;
6878;SDS011;3478;51.462;7.338;2022-10-16T08:52:29;1.83;;;0.60;;
6878;SDS011;3478;51.462;7.338;2022-10-16T08:57:33;1.70;;;0.50;;
6878;SDS011;3478;51.462;7.338;2022-10-16T09:02:37;0.93;;;0.40;;
6878;SDS011;3478;51.462;7.338;2022-10-16T09:07:43;3.30;;;0.60;;
6878;SDS011;3478;51.462;7.338;2022-10-16T09:12:52;1.70;;;0.50;;
6878;SDS011;3478;51.462;7.338;2022-10-16T09:18:02;0.70;;;0.40;;
6878;SDS011;3478;51.462;7.338;2022-10-16T09:23:14;0.83;;;0.40;;
6878;SDS011;3478;51.462;7.338;2022-10-16T09:28:18;2.03;;;0.50;;
6878;SDS011;3478;51.462;7.338;2022-10-16T09:33:22;0.70;;;0.40;;
6878;SDS011;3478;51.462;7.338;2022-10-16T09:38:27;1.93;;;0.70;;
6878;SDS011;3478;51.462;7.338;2022-10-16T09:43:32;0.70;;;0.40;;
6878;SDS011;3478;51.462;7.338;2022-10-16T09:48:44;1.27;;;0.60;;
6878;SDS011;3478;51.462;7.338;2022-10-16T09:53:53;0.70;;;0.33;;
6878;SDS011;3478;51.462;7.338;2022-10-16T09:58:57;2.30;;;0.43;;
6878;SDS011;3478;51.462;7.338;2022-10-16T10:04:02;1.77;;;0.40;;
6878;SDS011;3478;51.462;7.338;2022-10-16T10:09:06;0.70;;;0.40;;
6878;SDS011;3478;51.462;7.338;2022-10-16T10:14:20;0.90;;;0.50;;
6878;SDS011;3478;51.462;7.338;2022-10-16T10:19:30;1.33;;;0.30;;
6878;SDS011;3478;51.462;7.338;2022-10-16T10:24:39;5.10;;;0.50;;
6878;SDS011;3478;51.462;7.338;2022-10-16T10:29:44;2.07;;;0.60;;
6878;SDS011;3478;51.462;7.338;2022-10-16T10:34:59;0.90;;;0.40;;
6878;SDS011;3478;51.462;7.338;2022-10-16T10:40:16;2.93;;;0.40;;
6878;SDS011;3478;51.462;7.338;2022-10-16T10:45:28;2.93;;;0.40;;
6878;SDS011;3478;51.462;7.338;2022-10-16T10:50:45;1.40;;;0.30;;
6878;SDS011;3478;51.462;7.338;2022-10-16T10:55:51;0.63;;;0.30;;
6878;SDS011;3478;51.462;7.338;2022-10-16T11:01:00;1.00;;;0.40;;
6878;SDS011;3478;51.462;7.338;2022-10-16T11:06:10;1.57;;;0.30;;
6878;SDS011;3478;51.462;7.338;2022-10-16T11:11:17;0.90;;;0.50;;
6878;SDS011;3478;51.462;7.338;2022-10-16T11:16:26;0.70;;;0.33;;
6878;SDS011;3478;51.462;7.338;2022-10-16T11:21:33;0.83;;;0.30;;
6878;SDS011;3478;51.462;7.338;2022-10-16T11:26:41;1.37;;;0.40;;
6878;SDS011;3478;51.462;7.338;2022-10-16T11:31:45;1.20;;;0.30;;
6878;SDS011;3478;51.462;7.338;2022-10-16T11:36:53;1.00;;;0.30;;
6878;SDS011;3478;51.462;7.338;2022-10-16T11:42:01;1.77;;;0.30;;
6878;SDS011;3478;51.462;7.338;2022-10-16T11:47:11;1.50;;;0.40;;
6878;SDS011;3478;51.462;7.338;2022-10-16T11:52:28;1.53;;;0.30;;
6878;SDS011;3478;51.462;7.338;2022-10-16T11:57:35;0.73;;;0.30;;
6878;SDS011;3478;51.462;7.338;2022-10-16T12:02:46;0.63;;;0.30;;
6878;SDS011;3478;51.462;7.338;2022-10-16T12:07:59;1.20;;;0.30;;
6878;SDS011;3478;51.462;7.338;2022-10-16T12:18:31;0.50;;;0.23;;
6878;SDS011;3478;51.462;7.338;2022-10-16T12:23:37;1.23;;;0.30;;
6878;SDS011;3478;51.462;7.338;2022-10-16T12:28:47;1.23;;;0.40;;
6878;SDS011;3478;51.462;7.338;2022-10-16T12:33:54;0.63;;;0.50;;
6878;SDS011;3478;51.462;7.338;2022-10-16T12:39:00;1.50;;;0.40;;
6878;SDS011;3478;51.462;7.338;2022-10-16T12:44:03;1.70;;;0.43;;
6878;SDS011;3478;51.462;7.338;2022-10-16T12:49:20;3.33;;;0.33;;
6878;SDS011;3478;51.462;7.338;2022-10-16T12:54:27;1.20;;;0.30;;
6878;SDS011;3478;51.462;7.338;2022-10-16T12:59:35;0.70;;;0.30;;
6878;SDS011;3478;51.462;7.338;2022-10-16T13:04:46;1.23;;;0.30;;
6878;SDS011;3478;51.462;7.338;2022-10-16T13:10:02;0.60;;;0.30;;
6878;SDS011;3478;51.462;7.338;2022-10-16T13:15:22;1.53;;;0.40;;
6878;SDS011;3478;51.462;7.338;2022-10-16T13:20:40;3.13;;;0.30;;
6878;SDS011;3478;51.462;7.338;2022-10-16T13:26:00;1.67;;;0.70;;
6878;SDS011;3478;51.462;7.338;2022-10-16T13:31:12;1.10;;;0.30;;
6878;SDS011;3478;51.462;7.338;2022-10-16T13:36:18;0.70;;;0.30;;
6878;SDS011;3478;51.462;7.338;2022-10-16T13:41:23;0.80;;;0.70;;
6878;SDS011;3478;51.462;7.338;2022-10-16T13:46:25;1.53;;;0.60;;
6878;SDS011;3478;51.462;7.338;2022-10-16T13:51:27;1.10;;;0.30;;
6878;SDS011;3478;51.462;7.338;2022-10-16T13:56:32;0.60;;;0.20;;
6878;SDS011;3478;51.462;7.338;2022-10-16T14:01:34;4.30;;;0.63;;
6878;SDS011;3478;51.462;7.338;2022-10-16T14:06:42;1.43;;;0.30;;
6878;SDS011;3478;51.462;7.338;2022-10-16T14:11:48;1.43;;;0.40;;
6878;SDS011;3478;51.462;7.338;2022-10-16T14:16:52;1.20;;;0.80;;
6878;SDS011;3478;51.462;7.338;2022-10-16T14:21:54;1.63;;;0.50;;
6878;SDS011;3478;51.462;7.338;2022-10-16T14:26:59;1.80;;;0.53;;
6878;SDS011;3478;51.462;7.338;2022-10-16T14:32:02;1.57;;;0.40;;
6878;SDS011;3478;51.462;7.338;2022-10-16T14:37:06;0.57;;;0.30;;
6878;SDS011;3478;51.462;7.338;2022-10-16T14:42:14;2.23;;;0.30;;
6878;SDS011;3478;51.462;7.338;2022-10-16T14:47:20;1.80;;;0.50;;
6878;SDS011;3478;51.462;7.338;2022-10-16T14:52:25;1.53;;;0.50;;
6878;SDS011;3478;51.462;7.338;2022-10-16T14:57:28;0.70;;;0.40;;
6878;SDS011;3478;51.462;7.338;2022-10-16T15:02:34;0.73;;;0.40;;
6878;SDS011;3478;51.462;7.338;2022-10-16T15:07:37;4.27;;;4.03;;
6878;SDS011;3478;51.462;7.338;2022-10-16T15:12:41;2.77;;;2.10;;
6878;SDS011;3478;51.462;7.338;2022-10-16T15:17:43;2.90;;;1.37;;
6878;SDS011;3478;51.462;7.338;2022-10-16T15:22:45;1.20;;;0.90;;
6878;SDS011;3478;51.462;7.338;2022-10-16T15:27:48;1.80;;;0.87;;
6878;SDS011;3478;51.462;7.338;2022-10-16T15:32:50;0.93;;;0.50;;
6878;SDS011;3478;51.462;7.338;2022-10-16T15:37:52;1.33;;;0.50;;
6878;SDS011;3478;51.462;7.338;2022-10-16T15:42:55;0.90;;;0.40;;
6878;SDS011;3478;51.462;7.338;2022-10-16T15:47:57;0.80;;;0.40;;
6878;SDS011;3478;51.462;7.338;2022-10-16T15:52:59;2.17;;;0.40;;
6878;SDS011;3478;51.462;7.338;2022-10-16T15:58:02;3.10;;;0.40;;
6878;SDS011;3478;51.462;7.338;2022-10-16T16:03:04;2.70;;;0.80;;
6878;SDS011;3478;51.462;7.338;2022-10-16T16:08:06;1.90;;;0.50;;
6878;SDS011;3478;51.462;7.338;2022-10-16T16:13:09;3.00;;;0.73;;
6878;SDS011;3478;51.462;7.338;2022-10-16T16:18:11;2.37;;;1.30;;
6878;SDS011;3478;51.462;7.338;2022-10-16T16:23:13;2.70;;;0.80;;
6878;SDS011;3478;51.462;7.338;2022-10-16T16:28:17;1.30;;;0.80;;
6878;SDS011;3478;51.462;7.338;2022-10-16T16:33:18;2.03;;;0.97;;
6878;SDS011;3478;51.462;7.338;2022-10-16T16:38:20;6.20;;;1.27;;
6878;SDS011;3478;51.462;7.338;2022-10-16T16:43:24;2.77;;;1.90;;
6878;SDS011;3478;51.462;7.338;2022-10-16T16:48:27;1.40;;;1.03;;
6878;SDS011;3478;51.462;7.338;2022-10-16T16:53:28;2.50;;;1.03;;
6878;SDS011;3478;51.462;7.338;2022-10-16T16:58:32;1.10;;;1.00;;
6878;SDS011;3478;51.462;7.338;2022-10-16T17:03:34;3.03;;;0.80;;
6878;SDS011;3478;51.462;7.338;2022-10-16T17:08:37;6.30;;;0.80;;
6878;SDS011;3478;51.462;7.338;2022-10-16T17:13:41;2.00;;;0.90;;
6878;SDS011;3478;51.462;7.338;2022-10-16T17:18:43;1.63;;;0.60;;
6878;SDS011;3478;51.462;7.338;2022-10-16T17:23:45;0.90;;;0.60;;
6878;SDS011;3478;51.462;7.338;2022-10-16T17:28:51;0.97;;;0.53;;
6878;SDS011;3478;51.462;7.338;2022-10-16T17:33:54;2.13;;;0.50;;
6878;SDS011;3478;51.462;7.338;2022-10-16T17:38:56;8.03;;;7.03;;
6878;SDS011;3478;51.462;7.338;2022-10-16T17:44:02;1.37;;;1.07;;
6878;SDS011;3478;51.462;7.338;2022-10-16T17:49:05;2.60;;;0.73;;
6878;SDS011;3478;51.462;7.338;2022-10-16T17:54:07;3.43;;;0.60;;
6878;SDS011;3478;51.462;7.338;2022-10-16T17:59:11;3.90;;;0.80;;
6878;SDS011;3478;51.462;7.338;2022-10-16T18:04:14;1.90;;;0.50;;
6878;SDS011;3478;51.462;7.338;2022-10-16T18:09:17;2.83;;;0.90;;
6878;SDS011;3478;51.462;7.338;2022-10-16T18:14:22;1.33;;;0.83;;
6878;SDS011;3478;51.462;7.338;2022-10-16T18:19:24;3.47;;;0.63;;
6878;SDS011;3478;51.462;7.338;2022-10-16T18:24:27;1.93;;;0.60;;
6878;SDS011;3478;51.462;7.338;2022-10-16T18:29:30;1.00;;;0.60;;
6878;SDS011;3478;51.462;7.338;2022-10-16T18:34:32;2.83;;;1.17;;
6878;SDS011;3478;51.462;7.338;2022-10-16T18:39:36;1.10;;;0.67;;
6878;SDS011;3478;51.462;7.338;2022-10-16T18:44:39;1.00;;;0.60;;
6878;SDS011;3478;51.462;7.338;2022-10-16T18:49:41;2.40;;;0.50;;
6878;SDS011;3478;51.462;7.338;2022-10-16T18:54:45;8.50;;;1.30;;
6878;SDS011;3478;51.462;7.338;2022-10-16T18:59:49;5.07;;;4.47;;
6878;SDS011;3478;51.462;7.338;2022-10-16T19:04:50;1.70;;;1.10;;
6878;SDS011;3478;51.462;7.338;2022-10-16T19:09:52;1.83;;;0.70;;
6878;SDS011;3478;51.462;7.338;2022-10-16T19:14:56;0.90;;;0.70;;
6878;SDS011;3478;51.462;7.338;2022-10-16T19:19:57;1.10;;;0.70;;
6878;SDS011;3478;51.462;7.338;2022-10-16T19:24:59;2.63;;;1.23;;
6878;SDS011;3478;51.462;7.338;2022-10-16T19:30:03;7.57;;;0.90;;
6878;SDS011;3478;51.462;7.338;2022-10-16T19:35:06;1.30;;;1.03;;
6878;SDS011;3478;51.462;7.338;2022-10-16T19:40:09;2.93;;;0.93;;
6878;SDS011;3478;51.462;7.338;2022-10-16T19:45:12;3.30;;;1.27;;
6878;SDS011;3478;51.462;7.338;2022-10-16T19:50:14;0.97;;;0.80;;
6878;SDS011;3478;51.462;7.338;2022-10-16T19:55:18;2.50;;;1.20;;
6878;SDS011;3478;51.462;7.338;2022-10-16T20:00:22;3.23;;;1.47;;
6878;SDS011;3478;51.462;7.338;2022-10-16T20:05:23;2.60;;;1.33;;
6878;SDS011;3478;51.462;7.338;2022-10-16T20:10:25;3.73;;;1.67;;
6878;SDS011;3478;51.462;7.338;2022-10-16T20:15:29;1.43;;;1.33;;
6878;SDS011;3478;51.462;7.338;2022-10-16T20:20:31;1.60;;;1.50;;
6878;SDS011;3478;51.462;7.338;2022-10-16T20:25:37;3.30;;;1.30;;
6878;SDS011;3478;51.462;7.338;2022-10-16T20:30:42;1.97;;;1.13;;
6878;SDS011;3478;51.462;7.338;2022-10-16T20:35:46;1.33;;;1.17;;
6878;SDS011;3478;51.462;7.338;2022-10-16T20:40:49;1.40;;;1.30;;
6878;SDS011;3478;51.462;7.338;2022-10-16T20:45:58;1.50;;;1.40;;
6878;SDS011;3478;51.462;7.338;2022-10-16T20:51:09;1.10;;;0.80;;
6878;SDS011;3478;51.462;7.338;2022-10-16T20:56:12;1.00;;;0.90;;
6878;SDS011;3478;51.462;7.338;2022-10-16T21:01:17;1.23;;;1.13;;
6878;SDS011;3478;51.462;7.338;2022-10-16T21:06:19;1.33;;;1.17;;
6878;SDS011;3478;51.462;7.338;2022-10-16T21:11:23;1.43;;;1.33;;
6878;SDS011;3478;51.462;7.338;2022-10-16T21:16:28;2.20;;;1.50;;
6878;SDS011;3478;51.462;7.338;2022-10-16T21:21:31;2.10;;;2.00;;
6878;SDS011;3478;51.462;7.338;2022-10-16T21:26:34;2.57;;;2.37;;
6878;SDS011;3478;51.462;7.338;2022-10-16T21:31:38;1.83;;;1.60;;
6878;SDS011;3478;51.462;7.338;2022-10-16T21:36:40;1.77;;;1.67;;
6878;SDS011;3478;51.462;7.338;2022-10-16T21:41:44;2.00;;;1.90;;
6878;SDS011;3478;51.462;7.338;2022-10-16T21:46:49;2.97;;;2.60;;
6878;SDS011;3478;51.462;7.338;2022-10-16T21:51:51;2.90;;;2.70;;
6878;SDS011;3478;51.462;7.338;2022-10-16T21:56:53;2.60;;;2.50;;
6878;SDS011;3478;51.462;7.338;2022-10-16T22:01:57;4.47;;;3.90;;
6878;SDS011;3478;51.462;7.338;2022-10-16T22:07:01;3.90;;;3.70;;
6878;SDS011;3478;51.462;7.338;2022-10-16T22:12:03;2.50;;;2.40;;
6878;SDS011;3478;51.462;7.338;2022-10-16T22:17:06;8.47;;;3.40;;
6878;SDS011;3478;51.462;7.338;2022-10-16T22:22:08;3.30;;;3.10;;
6878;SDS011;3478;51.462;7.338;2022-10-16T22:27:10;4.30;;;3.30;;
6878;SDS011;3478;51.462;7.338;2022-10-16T22:32:13;3.80;;;3.53;;
6878;SDS011;3478;51.462;7.338;2022-10-16T22:37:15;5.43;;;2.57;;
6878;SDS011;3478;51.462;7.338;2022-10-16T22:42:17;3.67;;;3.37;;
6878;SDS011;3478;51.462;7.338;2022-10-16T22:47:20;3.47;;;3.17;;
6878;SDS011;3478;51.462;7.338;2022-10-16T22:52:22;8.57;;;3.40;;
6878;SDS011;3478;51.462;7.338;2022-10-16T22:57:24;4.47;;;4.00;;
6878;SDS011;3478;51.462;7.338;2022-10-16T23:02:27;3.23;;;3.03;;
6878;SDS011;3478;51.462;7.338;2022-10-16T23:07:30;8.20;;;4.50;;
6878;SDS011;3478;51.462;7.338;2022-10-16T23:12:33;3.73;;;3.53;;
6878;SDS011;3478;51.462;7.338;2022-10-16T23:17:37;4.77;;;4.43;;
6878;SDS011;3478;51.462;7.338;2022-10-16T23:22:38;4.07;;;3.73;;
6878;SDS011;3478;51.462;7.338;2022-10-16T23:27:40;5.90;;;3.93;;
6878;SDS011;3478;51.462;7.338;2022-10-16T23:32:44;6.73;;;4.43;;
6878;SDS011;3478;51.462;7.338;2022-10-16T23:37:46;7.20;;;3.87;;
6878;SDS011;3478;51.462;7.338;2022-10-16T23:42:47;3.93;;;3.63;;
6878;SDS011;3478;51.462;7.338;2022-10-16T23:47:51;4.83;;;4.27;;
6878;SDS011;3478;51.462;7.338;2022-10-16T23:52:53;4.43;;;4.13;;
6878;SDS011;3478;51.462;7.338;2022-10-16T23:57:54;4.70;;;4.40;;
